Time;durP1;ratioP1;P1;durP2;ratioP2;P2;SDS_P1;SDS_P2;PMS_P1;PMS_P2;Temp;Humidity;BMP_temperature;BMP_pressure;BME280_temperature;BME280_humidity;BME280_pressure;Samples;Min_cycle;Max_cycle;Signal;HPM_P1;HPM_P2
2023/12/30 00:02:04;;;;;;;11.35;5.82;;;;;;;10.67;60.16;99114.94;4905466;29;20050;-82
2023/12/30 00:04:30;;;;;;;10.10;5.82;;;;;;;10.63;60.19;99104.81;4921389;29;20119;-81
2023/12/30 00:06:55;;;;;;;11.80;5.63;;;;;;;10.65;60.23;99106.34;4905204;29;20168;-81
2023/12/30 00:09:21;;;;;;;9.20;5.28;;;;;;;10.59;60.30;99096.34;4904634;29;20071;-81
2023/12/30 00:11:46;;;;;;;9.40;5.78;;;;;;;10.62;60.46;99109.16;4905172;29;20130;-81
2023/12/30 00:14:12;;;;;;;9.07;5.45;;;;;;;10.62;60.28;99111.78;4920710;29;20024;-82
2023/12/30 00:16:39;;;;;;;12.13;5.35;;;;;;;10.60;60.22;99105.84;4920865;29;20098;-83
2023/12/30 00:19:05;;;;;;;10.63;5.40;;;;;;;10.58;60.29;99112.97;4921540;29;20036;-82
2023/12/30 00:21:31;;;;;;;10.23;5.40;;;;;;;10.53;60.52;99106.38;4905183;29;20055;-82
2023/12/30 00:23:56;;;;;;;8.05;5.22;;;;;;;10.57;60.16;99116.50;4920709;29;20082;-82
2023/12/30 00:26:25;;;;;;;8.20;5.28;;;;;;;10.55;60.35;99113.19;4904960;29;20040;-81
2023/12/30 00:28:50;;;;;;;;;;;;;;;10.55;60.51;99115.78;4902198;29;20090;-79
2023/12/30 00:31:25;;;;;;;9.50;5.30;;;;;;;10.52;60.64;99104.72;4920640;29;20387;-81
2023/12/30 00:33:51;;;;;;;9.88;5.55;;;;;;;10.45;60.72;99102.53;4920321;29;20551;-81
2023/12/30 00:36:17;;;;;;;8.63;5.10;;;;;;;10.50;60.71;99112.66;4896421;29;20032;-80
2023/12/30 00:38:42;;;;;;;7.75;4.70;;;;;;;10.48;60.80;99109.31;4919697;29;20047;-80
2023/12/30 00:41:08;;;;;;;9.23;4.95;;;;;;;10.44;60.46;99107.88;4920427;29;20471;-81
2023/12/30 00:43:34;;;;;;;10.52;4.75;;;;;;;10.48;60.60;99114.53;4920172;29;20042;-80
2023/12/30 00:46:00;;;;;;;8.98;4.88;;;;;;;10.45;60.61;99112.13;4903761;29;20047;-79
2023/12/30 00:48:25;;;;;;;9.73;5.45;;;;;;;10.48;60.52;99123.22;4936440;29;20038;-79
2023/12/30 00:50:51;;;;;;;10.18;5.13;;;;;;;10.47;60.43;99118.09;4913298;29;20576;-81
2023/12/30 00:53:17;;;;;;;9.20;4.70;;;;;;;10.39;60.73;99107.34;4901142;29;20035;-81
2023/12/30 00:55:43;;;;;;;11.63;5.28;;;;;;;10.45;60.71;99126.03;4900915;29;20032;-81
2023/12/30 00:58:09;;;;;;;9.82;5.07;;;;;;;10.42;60.69;99123.63;4900843;29;20028;-81
2023/12/30 01:00:34;;;;;;;8.88;5.30;;;;;;;10.42;60.68;99122.78;4916830;29;20179;-81
2023/12/30 01:03:00;;;;;;;7.50;5.28;;;;;;;10.43;60.46;99127.91;4916753;29;20536;-82
2023/12/30 01:05:26;;;;;;;9.10;5.55;;;;;;;10.45;60.35;99127.78;4901160;29;20559;-81
2023/12/30 01:07:52;;;;;;;8.52;5.40;;;;;;;10.43;60.65;99119.25;4900792;29;20032;-81
2023/12/30 01:10:17;;;;;;;10.35;5.30;;;;;;;10.43;60.54;99124.47;4900176;29;20051;-81
2023/12/30 01:12:43;;;;;;;8.32;5.35;;;;;;;10.42;60.44;99128.00;4885239;29;20048;-81
2023/12/30 01:15:09;;;;;;;8.75;5.18;;;;;;;10.37;60.49;99114.44;4900677;29;20035;-81
2023/12/30 01:17:35;;;;;;;10.43;5.78;;;;;;;10.41;60.33;99131.56;4885578;29;20492;-81
2023/12/30 01:20:01;;;;;;;9.50;5.07;;;;;;;10.38;60.41;99122.16;4900902;29;20084;-82
2023/12/30 01:22:27;;;;;;;10.02;5.55;;;;;;;10.35;60.30;99109.34;4901055;29;20408;-82
2023/12/30 01:24:54;;;;;;;10.20;5.35;;;;;;;10.31;60.26;99108.69;4916765;29;20044;-82
2023/12/30 01:27:19;;;;;;;9.80;5.20;;;;;;;10.31;60.44;99111.31;4900959;29;20024;-82
2023/12/30 01:29:45;;;;;;;8.18;5.53;;;;;;;10.34;60.42;99119.88;4885967;29;20032;-82
2023/12/30 01:32:10;;;;;;;8.02;5.10;;;;;;;10.25;60.16;99103.06;4885048;29;20072;-82
2023/12/30 01:34:36;;;;;;;8.45;4.88;;;;;;;10.30;60.12;99114.84;4900329;29;20457;-81
2023/12/30 01:37:01;;;;;;;9.20;5.18;;;;;;;10.27;60.03;99103.78;4900418;29;20044;-81
2023/12/30 01:39:29;;;;;;;8.63;4.95;;;;;;;10.24;60.17;99093.56;4884609;29;20036;-78
2023/12/30 01:41:54;;;;;;;8.07;5.20;;;;;;;10.26;60.19;99096.88;4884884;29;20039;-79
2023/12/30 01:44:20;;;;;;;9.00;5.18;;;;;;;10.22;60.03;99104.09;4917243;29;20032;-79
2023/12/30 01:46:46;;;;;;;8.73;5.13;;;;;;;10.21;59.90;99110.25;4915843;29;20040;-79
2023/12/30 01:49:11;;;;;;;9.45;5.57;;;;;;;10.16;59.92;99104.53;4900127;29;20041;-81
2023/12/30 01:51:37;;;;;;;6.50;4.60;;;;;;;10.14;59.82;99104.63;4911598;29;20451;-81
2023/12/30 01:54:03;;;;;;;8.57;5.13;;;;;;;10.05;59.85;99094.00;4903231;29;20054;-81
2023/12/30 01:56:29;;;;;;;9.13;5.20;;;;;;;10.06;59.98;99093.06;4919025;29;20467;-81
2023/12/30 01:58:54;;;;;;;9.77;5.57;;;;;;;10.10;59.89;99105.78;4919025;29;20040;-81
2023/12/30 02:01:23;;;;;;;9.02;5.32;;;;;;;10.08;60.01;99109.44;4903127;29;20503;-80
2023/12/30 02:03:48;;;;;;;;;;;;;;;10.05;59.63;99114.84;4919138;29;20031;-81
2023/12/30 02:06:14;;;;;;;6.45;4.28;;;;;;;10.00;59.82;99111.75;4918624;29;19914;-81
2023/12/30 02:08:40;;;;;;;7.93;4.72;;;;;;;9.93;59.71;99104.31;4902879;29;20531;-80
2023/12/30 02:11:05;;;;;;;8.07;5.20;;;;;;;9.94;59.79;99105.16;4918383;29;20519;-81
2023/12/30 02:13:32;;;;;;;6.75;4.82;;;;;;;9.85;59.95;99096.19;4918705;29;20130;-81
2023/12/30 02:15:57;;;;;;;7.15;4.88;;;;;;;9.90;59.69;99109.75;4934442;29;20090;-82
2023/12/30 02:18:24;;;;;;;8.05;4.63;;;;;;;9.87;59.67;99103.91;4902932;29;20040;-82
2023/12/30 02:20:49;;;;;;;7.72;4.70;;;;;;;9.87;59.47;99106.53;4934104;29;20551;-80
2023/12/30 02:23:15;;;;;;;7.93;4.88;;;;;;;9.86;59.52;99097.84;4918519;29;20040;-80
2023/12/30 02:25:40;;;;;;;7.95;4.72;;;;;;;9.82;59.54;99105.97;4918590;29;20044;-81
2023/12/30 02:28:06;;;;;;;7.75;4.85;;;;;;;9.75;59.42;99103.78;4918512;29;20035;-82
2023/12/30 02:30:32;;;;;;;8.15;4.88;;;;;;;9.73;59.47;99092.63;4902326;29;20472;-82
2023/12/30 02:32:58;;;;;;;7.88;5.07;;;;;;;9.72;59.45;99097.94;4918394;29;20125;-82
2023/12/30 02:35:24;;;;;;;7.95;5.10;;;;;;;9.76;59.39;99107.25;4918642;29;20546;-81
2023/12/30 02:37:50;;;;;;;8.10;4.75;;;;;;;9.72;59.36;99101.38;4933902;29;20028;-82
2023/12/30 02:40:16;;;;;;;8.65;4.97;;;;;;;9.72;59.63;99103.16;4902343;29;20468;-83
2023/12/30 02:42:41;;;;;;;7.20;4.72;;;;;;;9.69;59.32;99095.53;4902628;29;20559;-82
2023/12/30 02:45:07;;;;;;;9.95;5.60;;;;;;;9.66;59.33;99093.13;4918420;29;20035;-82
2023/12/30 02:47:33;;;;;;;7.30;4.80;;;;;;;9.67;59.35;99100.84;4918357;29;20499;-82
2023/12/30 02:49:58;;;;;;;7.40;5.30;;;;;;;9.61;59.31;99093.44;4933761;29;20079;-82
2023/12/30 02:52:25;;;;;;;8.48;4.90;;;;;;;9.61;59.31;99098.66;4901735;29;20511;-82
2023/12/30 02:54:51;;;;;;;8.80;4.82;;;;;;;9.60;59.24;99091.78;4902133;29;20090;-81
2023/12/30 02:57:17;;;;;;;8.60;5.30;;;;;;;9.59;59.06;99103.97;4918057;29;20032;-81
2023/12/30 02:59:42;;;;;;;8.68;5.07;;;;;;;9.56;59.25;99096.34;4905301;29;20038;-81
2023/12/30 03:02:08;;;;;;;8.18;4.90;;;;;;;9.53;59.02;99087.91;4924671;29;20039;-81
2023/12/30 03:04:33;;;;;;;9.10;4.93;;;;;;;9.55;59.40;99096.44;4924238;29;20054;-80
2023/12/30 03:06:59;;;;;;;7.05;4.95;;;;;;;9.51;59.12;99090.63;4908403;29;20032;-80
2023/12/30 03:09:24;;;;;;;7.25;4.60;;;;;;;9.49;59.25;99087.28;4941431;29;20035;-80
2023/12/30 03:11:50;;;;;;;9.75;5.22;;;;;;;9.50;59.27;99098.53;4940197;29;20035;-78
2023/12/30 03:14:16;;;;;;;8.00;4.78;;;;;;;9.48;59.27;99100.41;4924053;29;20028;-80
2023/12/30 03:16:42;;;;;;;7.22;4.55;;;;;;;9.45;59.23;99098.00;4924550;29;20032;-81
2023/12/30 03:19:08;;;;;;;8.15;5.18;;;;;;;9.43;59.11;99090.28;4908461;29;20562;-80
2023/12/30 03:21:33;;;;;;;6.72;4.72;;;;;;;9.41;59.09;99100.00;4908328;29;20046;-80
2023/12/30 03:23:59;;;;;;;8.85;4.88;;;;;;;9.41;59.30;99100.00;4924312;29;20516;-80
2023/12/30 03:26:24;;;;;;;9.27;5.00;;;;;;;9.33;59.18;99090.06;4908454;29;20373;-79
2023/12/30 03:28:50;;;;;;;8.50;5.05;;;;;;;9.37;59.07;99099.34;4924328;29;20039;-81
2023/12/30 03:31:21;;;;;;;8.07;5.25;;;;;;;9.37;59.03;99099.34;4908357;29;20098;-81
2023/12/30 03:33:47;;;;;;;7.90;5.25;;;;;;;9.35;59.12;99097.78;4924167;29;20028;-79
2023/12/30 03:36:12;;;;;;;7.70;4.60;;;;;;;9.30;58.97;99095.47;4908040;29;20052;-79
2023/12/30 03:38:37;;;;;;;8.10;5.07;;;;;;;9.25;59.00;99089.75;4924855;29;20040;-79
2023/12/30 03:41:03;;;;;;;8.48;4.65;;;;;;;9.21;58.83;99086.47;4940265;29;20042;-78
2023/12/30 03:43:29;;;;;;;7.60;4.60;;;;;;;9.24;59.20;99103.69;4924215;29;20024;-79
2023/12/30 03:45:54;;;;;;;8.18;4.95;;;;;;;9.29;59.23;99119.84;4940209;29;20086;-78
2023/12/30 03:48:19;;;;;;;7.72;4.85;;;;;;;9.28;58.81;99115.56;4939931;29;20400;-79
2023/12/30 03:50:45;;;;;;;7.05;4.75;;;;;;;9.28;59.00;99119.94;4923860;29;20090;-80
2023/12/30 03:53:11;;;;;;;8.20;4.88;;;;;;;9.25;59.12;99121.00;4908841;29;20478;-78
2023/12/30 03:55:36;;;;;;;7.75;4.97;;;;;;;9.24;58.92;99125.34;4939979;29;20035;-79
2023/12/30 03:58:02;;;;;;;9.50;5.20;;;;;;;9.24;58.96;99119.31;4940016;29;20028;-79
2023/12/30 04:00:27;;;;;;;8.63;4.75;;;;;;;9.20;59.26;99134.31;4924058;29;20115;-78
2023/12/30 04:02:53;;;;;;;8.90;5.13;;;;;;;9.14;58.97;99116.47;4907874;29;20071;-79
2023/12/30 04:05:19;;;;;;;9.23;4.80;;;;;;;9.16;58.81;99117.19;4908086;29;20078;-83
2023/12/30 04:07:45;;;;;;;8.15;5.10;;;;;;;9.16;59.24;99118.97;4924322;29;20041;-83
2023/12/30 04:10:13;;;;;;;8.82;5.20;;;;;;;9.11;58.90;99113.22;4923292;29;20027;-83
2023/12/30 04:12:38;;;;;;;9.00;5.03;;;;;;;9.13;58.90;99117.41;4904301;29;20046;-78
2023/12/30 04:15:05;;;;;;;8.40;5.28;;;;;;;9.08;59.14;99111.66;4936321;29;20047;-79
2023/12/30 04:17:30;;;;;;;7.93;4.95;;;;;;;9.16;59.13;99127.63;4920742;29;20024;-79
2023/12/30 04:19:56;;;;;;;11.27;5.47;;;;;;;9.09;58.72;99112.47;4920741;29;20043;-79
2023/12/30 04:22:23;;;;;;;8.13;4.80;;;;;;;9.14;58.70;99128.63;4905198;29;20059;-78
2023/12/30 04:24:49;;;;;;;6.50;4.70;;;;;;;9.12;58.90;99128.75;4921580;29;20080;-79
2023/12/30 04:27:15;;;;;;;6.97;4.75;;;;;;;9.10;58.94;99130.63;4936807;29;20063;-80
2023/12/30 04:29:40;;;;;;;7.05;4.90;;;;;;;9.03;58.55;99129.34;4905051;29;20561;-81
2023/12/30 04:32:07;;;;;;;7.57;4.90;;;;;;;8.98;58.77;99123.56;4904926;29;20044;-81
2023/12/30 04:34:33;;;;;;;6.78;4.85;;;;;;;9.06;58.92;99142.16;4920942;29;20044;-79
2023/12/30 04:36:58;;;;;;;8.75;5.22;;;;;;;9.05;58.87;99151.75;4936860;29;20026;-78
2023/12/30 04:39:24;;;;;;;9.45;5.72;;;;;;;8.99;58.63;99148.69;4920885;29;20411;-78
2023/12/30 04:41:49;;;;;;;7.90;5.28;;;;;;;8.99;58.95;99146.91;4920638;29;20463;-79
2023/12/30 04:44:21;;;;;;;8.85;5.85;;;;;;;8.96;58.83;99154.91;4937737;29;20472;-86
2023/12/30 04:46:47;;;;;;;9.93;5.78;;;;;;;8.94;58.73;99150.75;4905158;29;20023;-84
2023/12/30 04:49:13;;;;;;;9.50;6.45;;;;;;;8.84;58.98;99134.88;4905346;29;20419;-83
2023/12/30 04:51:43;;;;;;;9.68;5.82;;;;;;;8.95;58.29;99166.28;4904619;29;20488;-86
2023/12/30 04:54:09;;;;;;;8.32;5.55;;;;;;;8.90;58.74;99160.50;4937943;29;20038;-84
2023/12/30 04:56:35;;;;;;;10.00;6.60;;;;;;;8.84;58.56;99155.72;4936161;29;20043;-84
2023/12/30 04:59:00;;;;;;;10.98;6.57;;;;;;;8.86;58.72;99161.66;4904656;29;20403;-83
2023/12/30 05:01:26;;;;;;;10.27;5.70;;;;;;;8.87;58.72;99168.50;4904452;29;20091;-81
2023/12/30 05:03:53;;;;;;;11.18;6.88;;;;;;;8.86;58.45;99167.69;4920061;29;20488;-81
2023/12/30 05:06:21;;;;;;;11.25;6.95;;;;;;;8.78;58.62;99156.91;4920877;29;20042;-81
2023/12/30 05:08:50;;;;;;;;;;;;;;;8.84;58.47;99172.16;4920483;29;20032;-80
2023/12/30 05:11:15;;;;;;;10.40;6.93;;;;;;;8.78;58.75;99171.72;4919586;29;19911;-82
2023/12/30 05:13:44;;;;;;;9.35;6.18;;;;;;;8.79;58.79;99181.16;4902074;29;20055;-82
2023/12/30 05:16:10;;;;;;;12.55;6.93;;;;;;;8.76;58.62;99176.16;4920159;29;20035;-83
2023/12/30 05:18:35;;;;;;;10.40;6.90;;;;;;;8.71;58.46;99178.22;4904651;29;20039;-83
2023/12/30 05:21:01;;;;;;;9.95;7.05;;;;;;;8.73;58.48;99177.19;4903990;29;20028;-82
2023/12/30 05:23:26;;;;;;;11.35;7.22;;;;;;;8.72;58.72;99183.31;4919555;29;20036;-81
2023/12/30 05:25:52;;;;;;;10.68;7.00;;;;;;;8.71;58.20;99178.22;4920116;29;20503;-82
2023/12/30 05:28:17;;;;;;;10.88;7.63;;;;;;;8.66;58.57;99174.13;4903939;29;20031;-85
2023/12/30 05:30:43;;;;;;;10.63;6.85;;;;;;;8.65;58.56;99171.59;4903849;29;20392;-85
2023/12/30 05:33:08;;;;;;;9.77;6.55;;;;;;;8.69;58.61;99189.53;4903804;29;20036;-84
2023/12/30 05:35:37;;;;;;;12.02;7.38;;;;;;;8.65;58.57;99174.22;4919313;29;20056;-85
2023/12/30 05:38:03;;;;;;;11.32;6.57;;;;;;;8.67;58.47;99172.38;4919868;29;20409;-84
2023/12/30 05:40:32;;;;;;;10.75;6.82;;;;;;;8.69;58.20;99175.69;4920019;29;20095;-84
2023/12/30 05:42:57;;;;;;;10.68;7.57;;;;;;;8.68;58.15;99176.63;4903814;29;20094;-81
2023/12/30 05:45:23;;;;;;;9.88;6.47;;;;;;;8.69;58.18;99180.91;4936871;29;20043;-79
2023/12/30 05:47:48;;;;;;;12.43;7.07;;;;;;;8.69;58.30;99178.31;4919782;29;20122;-76
2023/12/30 05:50:14;;;;;;;9.43;6.72;;;;;;;8.77;61.13;99177.84;4903790;29;20475;-75
2023/12/30 05:52:40;;;;;;;9.63;6.35;;;;;;;8.80;60.05;99178.47;4920175;29;20570;-77
2023/12/30 05:55:05;;;;;;;10.60;7.05;;;;;;;8.84;59.92;99176.53;4934928;29;20027;-74
2023/12/30 05:57:32;;;;;;;11.02;7.20;;;;;;;8.94;59.18;99176.78;4918869;29;20044;-74
2023/12/30 05:59:58;;;;;;;11.07;6.55;;;;;;;9.01;58.85;99171.13;4903443;29;20522;-79
2023/12/30 06:02:24;;;;;;;9.93;6.70;;;;;;;9.16;58.52;99181.50;4902552;29;20131;-81
2023/12/30 06:04:49;;;;;;;11.20;6.97;;;;;;;9.46;57.98;99178.69;4918509;29;20047;-80
2023/12/30 06:07:15;;;;;;;9.13;6.78;;;;;;;9.73;57.23;99170.84;4918859;29;20024;-82
2023/12/30 06:09:44;;;;;;;11.50;7.18;;;;;;;10.09;56.42;99178.94;4903224;29;20416;-86
2023/12/30 06:12:09;;;;;;;9.02;6.40;;;;;;;10.56;55.54;99180.09;4919341;29;20415;-83
2023/12/30 06:14:36;;;;;;;8.20;6.47;;;;;;;10.99;54.74;99174.47;4919015;29;20035;-73
2023/12/30 06:17:02;;;;;;;9.82;6.57;;;;;;;11.35;54.00;99177.16;4918539;29;20035;-73
2023/12/30 06:19:27;;;;;;;20.63;9.35;;;;;;;11.90;63.00;99177.50;4903359;29;20044;-74
2023/12/30 06:21:53;;;;;;;20.17;7.85;;;;;;;12.43;60.33;99180.50;4902961;29;20048;-74
2023/12/30 06:24:18;;;;;;;13.95;6.93;;;;;;;13.31;64.21;99178.84;4918462;29;20040;-77
2023/12/30 06:26:44;;;;;;;15.18;10.52;;;;;;;14.29;63.43;99176.97;4904971;29;20028;-79
2023/12/30 06:29:10;;;;;;;28.92;16.20;;;;;;;15.35;60.76;99165.19;4919117;29;20463;-75
2023/12/30 06:31:42;;;;;;;23.00;13.88;;;;;;;16.36;55.82;99177.97;4918420;29;20484;-77
2023/12/30 06:34:09;;;;;;;20.98;13.90;;;;;;;17.16;52.82;99170.41;4886830;29;20051;-74
2023/12/30 06:36:34;;;;;;;19.23;11.05;;;;;;;17.89;51.90;99177.38;4919008;29;20381;-73
2023/12/30 06:39:00;;;;;;;35.55;11.38;;;;;;;18.48;50.07;99176.75;4920523;29;20035;-84
2023/12/30 06:41:25;;;;;;;20.38;9.73;;;;;;;19.12;49.87;99177.22;4902905;29;20055;-85
2023/12/30 06:43:51;;;;;;;16.17;9.57;;;;;;;19.74;48.09;99180.47;4902441;29;20036;-77
2023/12/30 06:46:20;;;;;;;20.42;8.43;;;;;;;20.11;46.40;99179.13;4933506;29;20475;-76
2023/12/30 06:48:46;;;;;;;14.35;8.35;;;;;;;20.65;45.29;99181.19;4918379;29;20070;-83
2023/12/30 06:51:12;;;;;;;12.68;8.38;;;;;;;21.26;44.11;99187.53;4937344;29;20055;-81
2023/12/30 06:53:37;;;;;;;11.38;8.02;;;;;;;21.77;43.14;99181.72;4937591;29;20042;-79
2023/12/30 06:56:08;;;;;;;13.35;8.10;;;;;;;22.28;42.61;99191.75;4921426;29;20046;-81
2023/12/30 06:58:34;;;;;;;13.25;8.30;;;;;;;22.64;41.87;99184.91;4922568;29;20024;-80
2023/12/30 07:00:59;;;;;;;11.60;7.60;;;;;;;22.94;41.53;99194.53;4921172;29;20085;-74
2023/12/30 07:03:24;;;;;;;19.67;8.18;;;;;;;23.18;41.56;99192.56;4937060;29;20503;-76
2023/12/30 07:05:50;;;;;;;12.70;7.78;;;;;;;23.37;41.05;99192.97;4921178;29;20550;-75
2023/12/30 07:08:16;;;;;;;13.35;7.93;;;;;;;23.71;41.14;99194.97;4936513;29;20100;-74
2023/12/30 07:10:41;;;;;;;12.43;7.70;;;;;;;23.96;40.61;99194.59;4937061;29;20035;-77
2023/12/30 07:13:07;;;;;;;11.00;6.07;;;;;;;24.03;41.69;99192.78;4920751;29;20138;-75
2023/12/30 07:15:32;;;;;;;10.05;5.65;;;;;;;24.13;42.29;99189.78;4937131;29;20493;-75
2023/12/30 07:17:59;;;;;;;6.57;4.40;;;;;;;24.03;43.42;99198.94;4921284;29;20074;-76
2023/12/30 07:20:26;;;;;;;9.68;4.30;;;;;;;24.17;43.53;99194.53;4936858;29;20035;-74
2023/12/30 07:22:53;;;;;;;9.07;4.75;;;;;;;24.04;43.93;99191.78;4937736;29;20057;-81
2023/12/30 07:25:18;;;;;;;10.50;4.65;;;;;;;23.83;44.46;99189.94;4935718;29;20043;-75
2023/12/30 07:27:44;;;;;;;18.27;4.85;;;;;;;23.72;44.17;99193.09;4919876;29;20023;-78
2023/12/30 07:30:09;;;;;;;9.80;5.30;;;;;;;23.52;44.42;99193.75;4935835;29;20424;-75
2023/12/30 07:32:35;;;;;;;11.68;4.80;;;;;;;23.08;44.41;99192.06;4920105;29;20073;-74
2023/12/30 07:35:01;;;;;;;7.00;4.60;;;;;;;22.50;45.60;99198.03;4935487;29;20048;-73
2023/12/30 07:37:27;;;;;;;9.60;4.28;;;;;;;21.94;47.06;99197.56;4936653;29;20052;-75
2023/12/30 07:39:53;;;;;;;9.95;4.25;;;;;;;21.53;47.85;99197.88;4919477;29;20043;-74
2023/12/30 07:42:18;;;;;;;15.25;4.50;;;;;;;21.17;48.28;99188.59;4935609;29;20209;-76
2023/12/30 07:44:44;;;;;;;7.85;4.20;;;;;;;20.90;48.96;99208.47;4951708;28;20039;-73
2023/12/30 07:47:09;;;;;;;6.75;3.90;;;;;;;20.72;49.63;99198.91;4928601;29;20035;-80
2023/12/30 07:49:35;;;;;;;7.90;3.88;;;;;;;20.61;50.35;99204.56;4939562;29;20035;-71
2023/12/30 07:52:00;;;;;;;8.95;4.57;;;;;;;20.41;50.34;99212.06;4922581;29;20467;-79
2023/12/30 07:54:27;;;;;;;8.82;4.97;;;;;;;20.34;50.31;99214.56;4914849;29;20035;-75
2023/12/30 07:56:52;;;;;;;10.48;5.95;;;;;;;20.20;50.18;99215.25;4914784;29;20024;-75
2023/12/30 07:59:18;;;;;;;17.38;7.22;;;;;;;20.08;50.15;99216.56;4898413;29;20111;-76
2023/12/30 08:01:44;;;;;;;14.85;7.00;;;;;;;19.97;50.11;99212.44;4919550;29;20040;-73
2023/12/30 08:04:10;;;;;;;17.33;8.57;;;;;;;19.86;50.05;99213.59;4919387;29;20047;-73
2023/12/30 08:09:11;;;;;;;165.98;45.08;;;;;;;19.99;49.98;99224.53;5017124;23;20064;-72
2023/12/30 08:11:36;;;;;;;269.77;67.82;;;;;;;20.03;50.67;99217.06;4918137;29;20400;-74
2023/12/30 08:14:02;;;;;;;298.85;76.88;;;;;;;20.23;50.69;99213.06;4917528;29;20068;-75
2023/12/30 08:16:28;;;;;;;320.88;79.70;;;;;;;20.45;50.29;99218.69;4901421;29;20119;-76
2023/12/30 08:18:54;;;;;;;319.33;78.72;;;;;;;20.59;49.63;99214.50;4901093;29;20043;-76
2023/12/30 08:21:19;;;;;;;295.55;76.40;;;;;;;20.72;49.16;99236.03;4916214;29;20043;-74
2023/12/30 08:23:45;;;;;;;270.30;69.38;;;;;;;20.73;48.97;99240.38;4901479;29;20047;-75
2023/12/30 08:26:11;;;;;;;251.50;68.30;;;;;;;20.60;48.67;99227.59;4901748;29;20032;-76
2023/12/30 08:28:36;;;;;;;227.20;62.55;;;;;;;20.53;48.74;99244.38;4905271;29;20427;-77
2023/12/30 08:31:02;;;;;;;225.32;59.58;;;;;;;20.42;48.69;99234.94;4916818;29;20052;-77
2023/12/30 08:33:27;;;;;;;214.73;57.55;;;;;;;20.40;48.82;99243.06;4918550;29;20079;-76
2023/12/30 08:35:52;;;;;;;206.43;55.45;;;;;;;20.39;48.90;99235.28;4901556;29;20404;-75
2023/12/30 08:38:18;;;;;;;196.07;51.00;;;;;;;20.35;49.07;99244.53;4901349;29;20107;-80
2023/12/30 08:40:43;;;;;;;172.73;50.40;;;;;;;20.31;49.07;99238.75;4885720;29;20046;-78
2023/12/30 08:43:10;;;;;;;184.95;49.97;;;;;;;20.40;48.81;99245.72;4901626;29;20411;-72
2023/12/30 08:45:36;;;;;;;184.00;50.53;;;;;;;20.33;48.46;99244.72;4918031;29;20119;-76
2023/12/30 08:48:02;;;;;;;167.68;50.00;;;;;;;20.36;47.59;99238.25;4901757;29;20084;-77
2023/12/30 08:50:27;;;;;;;160.68;49.10;;;;;;;20.31;47.16;99248.53;4901718;29;20380;-77
2023/12/30 08:52:54;;;;;;;146.40;46.63;;;;;;;20.25;46.63;99250.03;4901309;29;20043;-80
2023/12/30 08:55:19;;;;;;;201.15;59.92;;;;;;;20.41;47.22;99249.16;4885891;29;20040;-78
2023/12/30 08:57:45;;;;;;;161.52;50.78;;;;;;;20.74;45.07;99255.25;4884997;29;20043;-74
2023/12/30 09:00:11;;;;;;;145.27;47.88;;;;;;;21.26;44.19;99248.59;4899779;29;20051;-72
2023/12/30 09:02:46;;;;;;;130.73;45.50;;;;;;;21.89;42.18;99243.28;4918630;29;20385;-83
2023/12/30 09:05:11;;;;;;;119.93;43.45;;;;;;;22.45;41.32;99231.50;4904419;29;20032;-71
2023/12/30 09:07:37;;;;;;;110.95;40.00;;;;;;;23.03;39.90;99235.19;4917405;29;20570;-71
2023/12/30 09:10:02;;;;;;;117.15;42.80;;;;;;;23.35;41.08;99234.97;4926204;29;20043;-72
2023/12/30 09:12:28;;;;;;;109.63;39.38;;;;;;;23.88;40.00;99232.03;4908335;29;20508;-71
2023/12/30 09:14:54;;;;;;;111.88;37.75;;;;;;;24.17;39.75;99218.53;4912065;29;20035;-72
2023/12/30 09:17:19;;;;;;;99.82;36.80;;;;;;;24.59;39.36;99216.00;4932973;29;20047;-73
2023/12/30 09:19:45;;;;;;;103.13;35.05;;;;;;;24.91;39.45;99213.69;4934623;29;20044;-74
2023/12/30 09:22:12;;;;;;;99.97;32.80;;;;;;;25.19;37.75;99213.59;4910555;29;20052;-70
2023/12/30 09:24:37;;;;;;;47.47;23.70;;;;;;;25.00;32.24;99209.84;4931909;29;20411;-70
2023/12/30 09:27:03;;;;;;;43.97;20.45;;;;;;;24.97;28.97;99206.72;4927794;29;20051;-83
2023/12/30 09:29:29;;;;;;;45.95;21.85;;;;;;;25.01;32.73;99199.97;4899065;29;20032;-74
2023/12/30 09:31:55;;;;;;;37.67;19.90;;;;;;;25.13;30.30;99200.19;4919393;29;20107;-72
2023/12/30 09:34:20;;;;;;;28.75;17.58;;;;;;;25.10;27.45;99198.78;4891020;29;20083;-71
2023/12/30 09:36:46;;;;;;;26.50;17.50;;;;;;;25.13;26.62;99186.84;4900270;29;20055;-76
2023/12/30 09:39:11;;;;;;;26.25;16.65;;;;;;;25.08;25.87;99185.63;4895638;29;20049;-70
2023/12/30 09:41:40;;;;;;;43.85;17.98;;;;;;;24.85;32.32;99182.44;4936404;29;20090;-76
2023/12/30 09:44:06;;;;;;;30.50;17.58;;;;;;;25.03;28.16;99190.75;4909143;29;20623;-72
2023/12/30 09:46:31;;;;;;;26.67;17.25;;;;;;;25.87;24.82;99175.31;4898094;29;20097;-75
2023/12/30 09:48:57;;;;;;;23.50;16.15;;;;;;;26.65;23.10;99179.97;4914388;29;20036;-78
2023/12/30 09:51:23;;;;;;;27.63;16.05;;;;;;;27.34;21.35;99169.59;4914047;29;20036;-73
2023/12/30 09:53:48;;;;;;;24.08;15.18;;;;;;;27.77;21.05;99182.25;4915391;29;20622;-75
2023/12/30 09:56:14;;;;;;;20.75;13.98;;;;;;;28.48;19.53;99172.13;4897132;29;20036;-75
2023/12/30 09:58:39;;;;;;;22.40;14.60;;;;;;;28.67;19.57;99164.09;4910340;29;20058;-75
2023/12/30 10:01:05;;;;;;;22.05;15.75;;;;;;;29.46;18.37;99164.13;4916500;29;20435;-78
2023/12/30 10:03:31;;;;;;;20.75;14.75;;;;;;;29.80;18.18;99169.81;4917545;29;20048;-85
2023/12/30 10:06:01;;;;;;;18.73;14.98;;;;;;;30.33;17.33;99165.38;4917315;29;20118;-89
2023/12/30 10:08:27;;;;;;;20.20;14.43;;;;;;;30.83;17.23;99162.09;4917349;29;20054;-80
2023/12/30 10:10:54;;;;;;;19.00;15.20;;;;;;;31.34;16.45;99164.16;4916826;29;20122;-85
2023/12/30 10:13:25;;;;;;;18.63;14.57;;;;;;;31.66;16.08;99160.94;4900999;29;20044;-80
2023/12/30 10:15:51;;;;;;;26.15;15.88;;;;;;;31.80;15.67;99158.72;4917080;29;20027;-77
2023/12/30 10:18:17;;;;;;;25.88;18.92;;;;;;;31.98;16.44;99157.66;4914561;29;20047;-77
2023/12/30 10:20:43;;;;;;;26.65;17.75;;;;;;;31.92;16.31;99151.38;4915714;29;20064;-80
2023/12/30 10:23:09;;;;;;;24.23;16.73;;;;;;;31.70;16.97;99148.59;4903330;29;20581;-79
2023/12/30 10:25:34;;;;;;;18.98;13.80;;;;;;;31.10;19.55;99155.38;4909807;29;20032;-72
2023/12/30 10:28:01;;;;;;;18.48;13.20;;;;;;;30.71;20.19;99134.41;4907749;29;20056;-76
2023/12/30 10:30:28;;;;;;;28.27;14.70;;;;;;;30.21;19.29;99143.84;4896590;29;20052;-77
2023/12/30 10:33:03;;;;;;;;;;;;;;;29.58;19.55;99135.34;4929859;29;20854;-73
2023/12/30 10:35:28;;;;;;;20.58;13.35;;;;;;;29.13;19.93;99124.22;4924335;29;20021;-67
2023/12/30 10:37:54;;;;;;;21.00;12.30;;;;;;;28.61;22.16;99119.34;4912862;29;20503;-75
2023/12/30 10:40:19;;;;;;;19.05;12.48;;;;;;;28.28;22.64;99113.28;4913342;29;20036;-72
2023/12/30 10:42:45;;;;;;;19.00;12.38;;;;;;;27.91;22.75;99115.91;4913123;29;20415;-85
2023/12/30 10:45:12;;;;;;;52.50;15.27;;;;;;;27.51;23.14;99108.19;4880633;29;20067;-71
2023/12/30 10:47:39;;;;;;;38.78;19.35;;;;;;;27.14;23.95;99102.66;4912726;29;20128;-73
2023/12/30 10:50:06;;;;;;;28.33;18.67;;;;;;;26.79;25.01;99108.44;4912969;29;20040;-74
2023/12/30 10:52:32;;;;;;;49.10;20.95;;;;;;;26.47;25.58;99099.47;4897285;29;20639;-75
2023/12/30 10:55:09;;;;;;;35.97;19.88;;;;;;;26.21;25.75;99103.06;4913250;29;20052;-73
2023/12/30 10:57:36;;;;;;;31.43;20.33;;;;;;;25.93;25.72;99109.44;4896639;29;20050;-73
2023/12/30 11:00:07;;;;;;;36.65;20.15;;;;;;;25.68;26.32;99101.25;4912060;29;20039;-72
2023/12/30 11:02:33;;;;;;;40.25;20.42;;;;;;;25.30;26.62;99099.19;4913076;29;20032;-73
2023/12/30 11:04:58;;;;;;;34.22;19.80;;;;;;;25.04;26.42;99098.91;4913236;29;20059;-76
2023/12/30 11:07:24;;;;;;;34.83;21.17;;;;;;;24.86;26.50;99101.31;4907480;29;20047;-75
2023/12/30 11:09:49;;;;;;;30.73;19.88;;;;;;;24.63;26.68;99090.97;4881899;29;20044;-74
2023/12/30 11:12:15;;;;;;;34.65;20.88;;;;;;;24.29;28.06;99095.31;4913270;29;20091;-71
2023/12/30 11:14:40;;;;;;;37.58;21.38;;;;;;;24.13;28.40;99089.28;4914921;29;20067;-79
2023/12/30 11:17:06;;;;;;;32.83;21.10;;;;;;;23.89;31.00;99089.75;4897572;29;20036;-74
2023/12/30 11:19:32;;;;;;;31.80;19.95;;;;;;;23.54;33.34;99095.78;4913686;29;20411;-73
2023/12/30 11:22:02;;;;;;;28.58;18.52;;;;;;;23.49;34.88;99090.22;4917315;29;20031;-72
2023/12/30 11:24:27;;;;;;;29.92;18.80;;;;;;;23.24;35.93;99074.63;4885194;29;20071;-69
2023/12/30 11:26:53;;;;;;;27.00;18.85;;;;;;;23.08;37.34;99069.56;4901265;29;20059;-72